Terminal Aerodrome Forecast
Issued by NWS

Home | Current Version | Previous Version | Text Only | Print | Product List | Glossary On
Versions: 1 2 3 4 5 6 7 8 9 10 11 12 13
000
FTUS46 KHNX 170527
TAFFAT
TAF
KFAT 170527Z 1706/1806 31008KT P6SM SCT200
     FM171200 VRB04KT P6SM FEW130 SCT200
     FM180100 30008KT P6SM FEW130 SCT200=

USA.gov is the U.S. government's official web portal to all federal, state and local government web resources and services.